createdAt,value
2018-05-23T00:02:01.330Z,28.90
2018-05-23T00:04:04.053Z,30.37
2018-05-23T00:06:06.761Z,34.87
2018-05-23T00:08:09.578Z,31.00
2018-05-23T00:10:13.030Z,28.50
2018-05-23T00:12:15.720Z,36.83
2018-05-23T00:14:18.455Z,31.87
2018-05-23T00:16:21.148Z,33.60
2018-05-23T00:18:23.893Z,33.43
2018-05-23T00:20:27.364Z,33.30
2018-05-23T00:22:30.116Z,35.50
2018-05-23T00:24:32.829Z,33.03
2018-05-23T00:26:36.316Z,32.73
2018-05-23T00:28:39.037Z,33.40
2018-05-23T00:30:41.771Z,36.23
2018-05-23T00:32:45.236Z,33.87
2018-05-23T00:34:47.967Z,35.07
2018-05-23T00:36:50.655Z,35.33
2018-05-23T00:38:53.378Z,38.10
2018-05-23T00:40:56.079Z,33.80
2018-05-23T00:42:59.550Z,33.77
2018-05-23T00:45:02.273Z,34.40
2018-05-23T00:47:05.029Z,34.67
2018-05-23T00:49:08.524Z,35.73
2018-05-23T00:51:11.984Z,37.33
2018-05-23T00:53:14.680Z,34.07
2018-05-23T00:55:29.314Z,40.93
2018-05-23T00:57:32.010Z,37.43
2018-05-23T00:59:34.745Z,34.50
2018-05-23T01:01:37.449Z,35.00
2018-05-23T01:03:40.141Z,39.70
2018-05-23T01:05:42.894Z,35.90
2018-05-23T01:07:45.585Z,39.50
2018-05-23T01:09:48.350Z,36.40
2018-05-23T01:11:51.054Z,34.20
2018-05-23T01:13:53.913Z,42.77
2018-05-23T01:15:57.430Z,36.57
2018-05-23T01:18:00.124Z,38.57
2018-05-23T01:20:03.616Z,38.07
2018-05-23T01:22:07.105Z,35.23
2018-05-23T01:24:09.809Z,39.47
2018-05-23T01:26:12.534Z,39.03
2018-05-23T01:28:15.356Z,40.07
2018-05-23T01:30:18.825Z,42.60
2018-05-23T01:32:21.620Z,38.43
2018-05-23T01:34:25.096Z,40.97
2018-05-23T01:36:27.827Z,43.47
2018-05-23T01:38:30.522Z,42.70
2018-05-23T01:40:33.195Z,39.80
2018-05-23T01:42:35.917Z,46.23
2018-05-23T01:44:38.628Z,46.23
2018-05-23T01:46:41.361Z,46.10
2018-05-23T01:48:55.965Z,47.33
2018-05-23T01:50:58.653Z,48.53
2018-05-23T01:53:01.381Z,45.47
2018-05-23T01:55:04.141Z,45.27
2018-05-23T01:57:06.818Z,45.40
2018-05-23T01:59:09.495Z,44.07
2018-05-23T02:01:12.184Z,46.20
2018-05-23T02:03:14.916Z,44.40
2018-05-23T02:05:17.590Z,46.40
2018-05-23T02:07:20.288Z,46.57
2018-05-23T02:09:23.017Z,47.00
2018-05-23T02:11:26.499Z,46.50
2018-05-23T02:13:29.996Z,49.10
2018-05-23T02:15:33.459Z,44.90
2018-05-23T02:17:36.159Z,51.90
2018-05-23T02:19:39.023Z,50.27
2018-05-23T02:21:41.716Z,58.43
2018-05-23T02:23:44.477Z,45.80
2018-05-23T02:25:47.195Z,57.70
2018-05-23T02:27:49.912Z,51.17
2018-05-23T02:29:52.600Z,47.10
2018-05-23T02:31:55.296Z,46.53
2018-05-23T02:33:58.037Z,59.20
2018-05-23T02:36:00.737Z,57.27
2018-05-23T02:38:03.422Z,50.60
2018-05-23T02:40:06.158Z,52.27
2018-05-23T02:42:08.839Z,50.67
2018-05-23T02:44:11.574Z,52.90
2018-05-23T02:46:19.973Z,56.33
2018-05-23T02:48:23.433Z,57.33
2018-05-23T02:50:26.125Z,59.80
2018-05-23T02:52:28.814Z,56.97
2018-05-23T02:54:31.520Z,57.47
2018-05-23T02:56:34.251Z,59.57
2018-05-23T02:58:36.925Z,59.70
2018-05-23T03:00:39.731Z,64.17
2018-05-23T03:02:42.404Z,54.60
2018-05-23T03:04:45.089Z,58.57
2018-05-23T03:06:48.652Z,54.20
2018-05-23T03:08:51.342Z,61.60
2018-05-23T03:10:54.077Z,63.73
2018-05-23T03:12:57.011Z,59.23
2018-05-23T03:14:59.768Z,65.63
2018-05-23T03:17:02.464Z,56.77
2018-05-23T03:19:05.169Z,61.17
2018-05-23T03:21:08.627Z,55.87
2018-05-23T03:23:11.324Z,67.93
2018-05-23T03:25:14.768Z,95.30
2018-05-23T03:27:17.503Z,68.07
2018-05-23T03:29:21.159Z,66.80
2018-05-23T03:31:23.888Z,66.63
2018-05-23T03:33:26.595Z,71.20
2018-05-23T03:35:29.882Z,59.50
2018-05-23T03:37:32.589Z,60.30
2018-05-23T03:39:35.262Z,62.93
2018-05-23T03:41:37.976Z,59.27
2018-05-23T03:43:41.421Z,67.27
2018-05-23T03:45:44.220Z,66.80
2018-05-23T03:47:46.911Z,60.23
2018-05-23T03:49:49.669Z,70.33
2018-05-23T03:51:52.387Z,61.37
2018-05-23T03:53:55.856Z,74.83
2018-05-23T03:55:59.639Z,68.43
2018-05-23T03:58:02.425Z,62.13
2018-05-23T04:00:16.984Z,67.03
2018-05-23T04:02:31.763Z,66.00
2018-05-23T04:04:46.396Z,61.70
2018-05-23T04:07:01.228Z,63.20
2018-05-23T04:09:04.043Z,61.63
2018-05-23T04:11:06.901Z,70.80
2018-05-23T04:13:09.629Z,64.10
2018-05-23T04:15:13.180Z,56.00
2018-05-23T04:17:15.870Z,55.30
2018-05-23T04:19:18.595Z,56.03
2018-05-23T04:21:21.297Z,51.67
2018-05-23T04:23:24.043Z,59.60
2018-05-23T04:25:27.507Z,49.20
2018-05-23T04:27:30.200Z,59.07
2018-05-23T04:29:33.776Z,52.40
2018-05-23T04:31:36.476Z,48.97
2018-05-23T04:33:39.957Z,45.50
2018-05-23T04:35:42.647Z,46.53
2018-05-23T04:37:46.100Z,53.70
2018-05-23T04:39:48.793Z,46.90
2018-05-23T04:41:51.519Z,44.37
2018-05-23T04:43:55.361Z,45.10
2018-05-23T04:45:58.080Z,45.97
2018-05-23T04:48:01.640Z,41.10
2018-05-23T04:50:05.198Z,40.60
2018-05-23T04:52:07.929Z,41.60
2018-05-23T04:54:10.747Z,44.00
2018-05-23T04:56:13.452Z,36.57
2018-05-23T04:58:16.206Z,37.97
2018-05-23T05:00:19.107Z,39.93
2018-05-23T05:02:21.860Z,35.33
2018-05-23T05:04:24.554Z,35.07
2018-05-23T05:06:27.289Z,33.30
2018-05-23T05:08:29.990Z,37.07
2018-05-23T05:10:32.738Z,31.27
2018-05-23T05:12:35.436Z,32.50
2018-05-23T05:14:38.884Z,31.73
2018-05-23T05:16:41.623Z,35.00
2018-05-23T05:18:44.328Z,40.40
2018-05-23T05:20:47.080Z,38.63
2018-05-23T05:22:49.816Z,26.53
2018-05-23T05:24:52.632Z,31.47
2018-05-23T05:26:56.108Z,28.43
2018-05-23T05:28:59.553Z,21.77
2018-05-23T05:31:02.408Z,23.67
2018-05-23T05:33:05.121Z,21.40
2018-05-23T05:35:08.293Z,24.60
2018-05-23T05:37:11.032Z,23.57
2018-05-23T05:39:14.585Z,21.57
2018-05-23T05:41:17.351Z,19.17
2018-05-23T05:43:20.031Z,28.20
2018-05-23T05:45:22.728Z,18.30
2018-05-23T05:47:25.454Z,15.30
2018-05-23T05:49:28.182Z,22.93
2018-05-23T05:51:30.940Z,16.13
2018-05-23T05:53:33.759Z,19.40
2018-05-23T05:55:36.431Z,14.17
2018-05-23T05:57:39.135Z,14.63
2018-05-23T05:59:41.830Z,16.73
2018-05-23T06:01:44.547Z,16.03
2018-05-23T06:03:47.276Z,17.93
2018-05-23T06:05:50.122Z,15.33
2018-05-23T06:07:52.883Z,22.57
2018-05-23T06:09:55.587Z,16.50
2018-05-23T06:11:59.655Z,19.03
2018-05-23T06:14:02.573Z,13.70
2018-05-23T06:16:06.079Z,16.10
2018-05-23T06:18:15.446Z,14.30
2018-05-23T06:20:24.944Z,17.23
2018-05-23T06:22:29.535Z,14.20
2018-05-23T06:24:32.337Z,15.50
2018-05-23T06:26:35.924Z,17.00
2018-05-23T06:28:38.667Z,19.07
2018-05-23T06:30:41.625Z,16.27
2018-05-23T06:32:44.521Z,14.37
2018-05-23T06:34:47.265Z,13.80
2018-05-23T06:36:52.100Z,14.07
2018-05-23T06:38:54.864Z,22.70
2018-05-23T06:40:58.324Z,13.87
2018-05-23T06:43:01.054Z,18.00
2018-05-23T06:45:03.809Z,21.33
2018-05-23T06:47:06.510Z,16.07
2018-05-23T06:49:09.243Z,14.20
2018-05-23T06:51:12.004Z,16.83
2018-05-23T06:53:15.020Z,21.03
2018-05-23T06:55:17.733Z,15.33
2018-05-23T06:57:20.416Z,15.43
2018-05-23T06:59:23.594Z,19.73
2018-05-23T07:01:26.400Z,14.93
2018-05-23T07:03:29.392Z,14.90
2018-05-23T07:05:32.085Z,18.10
2018-05-23T07:07:35.053Z,13.53
2018-05-23T07:09:37.727Z,16.87
2018-05-23T07:11:40.429Z,23.20
2018-05-23T07:13:43.583Z,16.97
2018-05-23T07:15:46.324Z,21.40
2018-05-23T07:17:49.195Z,25.80
2018-05-23T07:19:51.864Z,19.33
2018-05-23T07:21:55.360Z,18.63
2018-05-23T07:23:58.828Z,17.60
2018-05-23T07:26:01.607Z,14.87
2018-05-23T07:28:04.310Z,26.30
2018-05-23T07:30:07.024Z,14.77
2018-05-23T07:32:09.758Z,15.80
2018-05-23T07:34:13.232Z,14.03
2018-05-23T07:39:04.884Z,13.77
2018-05-23T07:41:07.580Z,15.00
2018-05-23T07:43:11.065Z,14.20
2018-05-23T07:45:14.526Z,16.33
2018-05-23T07:47:17.251Z,15.13
2018-05-23T07:49:19.922Z,15.60
2018-05-23T07:51:23.403Z,19.23
2018-05-23T07:53:26.187Z,20.93
2018-05-23T07:55:28.908Z,16.80
2018-05-23T07:57:31.684Z,15.60
2018-05-23T07:59:34.353Z,18.83
2018-05-23T08:01:37.068Z,20.90
2018-05-23T08:03:39.771Z,16.33
2018-05-23T08:05:42.530Z,25.50
2018-05-23T08:07:45.273Z,16.97
2018-05-23T08:09:47.974Z,18.60
2018-05-23T08:11:50.667Z,15.63
2018-05-23T08:13:53.391Z,17.53
2018-05-23T08:15:56.094Z,18.00
2018-05-23T08:17:58.808Z,19.47
2018-05-23T08:20:01.716Z,21.90
2018-05-23T08:22:04.526Z,24.10
2018-05-23T08:24:07.258Z,21.00
2018-05-23T08:26:14.464Z,18.43
2018-05-23T08:28:18.675Z,20.90
2018-05-23T08:30:24.642Z,16.60
2018-05-23T08:32:49.796Z,23.40
2018-05-23T08:34:57.211Z,17.80
2018-05-23T08:37:02.835Z,18.37
2018-05-23T08:39:05.688Z,25.03
2018-05-23T08:41:08.617Z,18.23
2018-05-23T08:43:12.161Z,23.00
2018-05-23T08:45:14.898Z,18.87
2018-05-23T08:47:18.353Z,17.33
2018-05-23T08:49:21.163Z,17.00
2018-05-23T08:51:24.609Z,19.70
2018-05-23T08:53:27.312Z,26.67
2018-05-23T08:55:30.036Z,21.63
2018-05-23T08:57:32.745Z,18.80
2018-05-23T08:59:35.839Z,24.03
2018-05-23T09:01:38.563Z,20.03
2018-05-23T09:03:42.020Z,21.20
2018-05-23T09:05:44.820Z,18.13
2018-05-23T09:07:48.582Z,20.77
2018-05-23T09:09:51.298Z,19.27
2018-05-23T09:11:54.773Z,22.63
2018-05-23T09:13:57.463Z,20.93
2018-05-23T09:16:00.177Z,17.60
2018-05-23T09:18:02.882Z,18.43
2018-05-23T09:20:06.095Z,23.17
2018-05-23T09:22:08.784Z,20.67
2018-05-23T09:24:11.471Z,18.23
2018-05-23T09:26:15.043Z,17.50
2018-05-23T09:28:17.761Z,20.97
2018-05-23T09:30:20.447Z,17.90
2018-05-23T09:32:23.165Z,23.17
2018-05-23T09:34:26.653Z,27.57
2018-05-23T09:36:29.478Z,19.27
2018-05-23T09:38:32.223Z,20.20
2018-05-23T09:40:34.894Z,27.60
2018-05-23T09:42:37.688Z,18.87
2018-05-23T09:44:40.390Z,19.30
2018-05-23T09:46:43.893Z,28.17
2018-05-23T09:48:46.611Z,22.97
2018-05-23T09:50:49.278Z,23.17
2018-05-23T09:52:51.998Z,20.90
2018-05-23T09:54:54.738Z,26.23
2018-05-23T09:56:57.494Z,23.20
2018-05-23T09:59:00.210Z,19.30
2018-05-23T10:01:02.991Z,14.77
2018-05-23T10:03:05.715Z,17.13
2018-05-23T10:05:08.380Z,14.53
2018-05-23T10:07:11.852Z,23.53
2018-05-23T10:09:14.568Z,21.73
2018-05-23T10:11:17.260Z,23.53
2018-05-23T10:13:19.987Z,18.43
2018-05-23T10:15:22.669Z,15.10
2018-05-23T10:17:25.376Z,15.40
2018-05-23T10:19:28.084Z,14.37
2018-05-23T10:21:30.815Z,16.43
2018-05-23T10:23:34.390Z,21.20
2018-05-23T10:25:38.167Z,19.10
2018-05-23T10:27:40.912Z,17.07
2018-05-23T10:29:43.601Z,19.70
2018-05-23T10:31:46.308Z,19.30
2018-05-23T10:33:49.041Z,18.60
2018-05-23T10:35:51.735Z,21.57
2018-05-23T10:37:54.426Z,18.10
2018-05-23T10:39:57.117Z,25.40
2018-05-23T10:41:59.793Z,23.70
2018-05-23T10:44:02.496Z,14.53
2018-05-23T10:46:05.953Z,18.30
2018-05-23T10:48:08.666Z,20.43
2018-05-23T10:50:11.492Z,18.60
2018-05-23T10:52:14.909Z,18.23
2018-05-23T10:54:17.625Z,16.70
2018-05-23T10:56:21.103Z,15.80
2018-05-23T10:58:23.841Z,19.37
2018-05-23T11:00:26.577Z,14.90
2018-05-23T11:02:30.062Z,23.63
2018-05-23T11:04:32.816Z,17.87
2018-05-23T11:06:35.555Z,17.70
2018-05-23T11:08:38.257Z,19.27
2018-05-23T11:10:40.993Z,21.23
2018-05-23T11:12:43.735Z,22.43
2018-05-23T11:14:46.540Z,21.93
2018-05-23T11:16:49.215Z,27.90
2018-05-23T11:18:52.658Z,19.80
2018-05-23T11:20:55.381Z,20.30
2018-05-23T11:22:58.083Z,16.53
2018-05-23T11:25:00.795Z,15.60
2018-05-23T11:27:03.489Z,19.33
2018-05-23T11:29:06.215Z,16.43
2018-05-23T11:31:09.118Z,17.57
2018-05-23T11:33:11.857Z,14.53
2018-05-23T11:35:14.589Z,12.37
2018-05-23T11:37:17.310Z,11.47
2018-05-23T11:39:20.786Z,15.33
2018-05-23T11:41:23.544Z,15.73
2018-05-23T11:43:26.290Z,12.63
2018-05-23T11:45:29.010Z,10.97
2018-05-23T11:47:31.691Z,16.27
2018-05-23T11:49:34.441Z,20.73
2018-05-23T11:51:37.434Z,17.20
2018-05-23T11:53:40.155Z,13.27
2018-05-23T11:55:43.659Z,19.57
2018-05-23T11:57:46.432Z,17.93
2018-05-23T11:59:50.168Z,16.77
2018-05-23T12:01:57.814Z,16.50
2018-05-23T12:04:00.464Z,14.10
2018-05-23T12:06:03.207Z,13.50
2018-05-23T12:08:07.227Z,16.10
2018-05-23T12:10:09.905Z,13.10
2018-05-23T12:12:12.637Z,9.90
2018-05-23T12:14:16.151Z,12.97
2018-05-23T12:16:18.840Z,12.73
2018-05-23T12:18:21.564Z,18.03
2018-05-23T12:20:24.253Z,7.83
2018-05-23T12:22:27.718Z,8.87
2018-05-23T12:24:30.400Z,7.67
2018-05-23T12:26:33.297Z,4.90
2018-05-23T12:28:37.019Z,8.90
2018-05-23T12:30:40.476Z,5.13
2018-05-23T12:32:43.182Z,3.17
2018-05-23T12:34:46.619Z,3.83
2018-05-23T12:36:49.305Z,4.53
2018-05-23T12:38:52.024Z,3.50
2018-05-23T12:40:55.509Z,5.00
2018-05-23T12:42:58.211Z,3.23
2018-05-23T12:45:01.690Z,3.33
2018-05-23T12:47:05.123Z,3.43
2018-05-23T12:49:07.837Z,6.00
2018-05-23T12:51:10.510Z,3.50
2018-05-23T12:53:13.214Z,3.33
2018-05-23T12:55:16.661Z,3.50
2018-05-23T12:57:19.367Z,6.57
2018-05-23T12:59:22.066Z,3.77
2018-05-23T13:01:25.518Z,4.77
2018-05-23T13:03:28.337Z,7.40
2018-05-23T13:05:30.962Z,11.30
2018-05-23T13:07:33.644Z,3.20
2018-05-23T13:09:36.352Z,5.80
2018-05-23T13:11:39.042Z,6.13
2018-05-23T13:13:41.745Z,4.70
2018-05-23T13:15:44.422Z,7.43
2018-05-23T13:17:47.129Z,3.07
2018-05-23T13:19:49.842Z,7.37
2018-05-23T13:21:52.522Z,4.43
2018-05-23T13:23:55.210Z,3.40
2018-05-23T13:25:58.699Z,4.00
2018-05-23T13:28:02.147Z,4.37
2018-05-23T13:30:04.867Z,4.40
2018-05-23T13:32:07.562Z,4.67
2018-05-23T13:34:10.995Z,4.10
2018-05-23T13:36:13.766Z,5.10
2018-05-23T13:38:16.450Z,4.13
2018-05-23T13:40:19.295Z,6.03
2018-05-23T13:42:23.326Z,4.13
2018-05-23T13:44:26.044Z,4.40
2018-05-23T13:46:28.901Z,4.83
2018-05-23T13:48:32.385Z,4.53
2018-05-23T13:50:35.194Z,6.00
2018-05-23T13:52:37.880Z,6.30
2018-05-23T13:54:40.620Z,8.90
2018-05-23T13:56:43.348Z,8.20
2018-05-23T13:58:46.808Z,9.13
2018-05-23T14:00:49.568Z,5.50
2018-05-23T14:02:52.255Z,9.97
2018-05-23T14:04:54.940Z,8.57
2018-05-23T14:06:57.680Z,7.40
2018-05-23T14:09:00.355Z,4.53
2018-05-23T14:11:03.090Z,6.53
2018-05-23T14:13:05.793Z,7.63
2018-05-23T14:15:09.282Z,11.33
2018-05-23T14:17:12.741Z,6.03
2018-05-23T14:19:16.603Z,5.60
2018-05-23T14:21:19.359Z,7.60
2018-05-23T14:23:22.778Z,6.33
2018-05-23T14:25:25.713Z,7.30
2018-05-23T14:27:28.411Z,11.93
2018-05-23T14:29:31.868Z,8.83
2018-05-23T14:31:34.705Z,5.47
2018-05-23T14:33:37.638Z,5.20
2018-05-23T14:35:40.480Z,5.83
2018-05-23T14:37:44.191Z,6.20
2018-05-23T14:39:47.357Z,11.27
2018-05-23T14:41:50.065Z,4.90
2018-05-23T14:43:52.782Z,9.40
2018-05-23T14:45:55.504Z,13.20
2018-05-23T14:48:04.843Z,6.63
2018-05-23T14:50:07.646Z,8.00
2018-05-23T14:52:10.452Z,12.37
2018-05-23T14:54:13.949Z,11.17
2018-05-23T14:56:17.417Z,6.63
2018-05-23T14:58:20.128Z,12.53
2018-05-23T15:00:23.685Z,7.20
2018-05-23T15:02:26.582Z,12.23
2018-05-23T15:04:29.311Z,10.40
2018-05-23T15:06:31.993Z,6.83
2018-05-23T15:08:34.764Z,7.30
2018-05-23T15:10:37.441Z,9.60
2018-05-23T15:12:40.136Z,7.47
2018-05-23T15:14:42.867Z,9.93
2018-05-23T15:16:46.311Z,7.83
2018-05-23T15:18:49.936Z,7.60
2018-05-23T15:20:52.802Z,8.70
2018-05-23T15:22:56.234Z,8.63
2018-05-23T15:24:59.733Z,11.23
2018-05-23T15:27:03.225Z,8.33
2018-05-23T15:29:14.661Z,8.50
2018-05-23T15:31:17.367Z,10.47
2018-05-23T15:33:21.002Z,8.70
2018-05-23T15:35:23.717Z,6.40
2018-05-23T15:37:26.611Z,7.23
2018-05-23T15:39:29.324Z,13.00
2018-05-23T15:41:32.794Z,7.97
2018-05-23T15:43:35.500Z,12.07
2018-05-23T15:45:38.330Z,9.33
2018-05-23T15:47:41.286Z,8.00
2018-05-23T15:49:44.034Z,16.63
2018-05-23T15:51:47.510Z,16.00
2018-05-23T15:53:50.215Z,12.23
2018-05-23T15:55:52.927Z,13.90
2018-05-23T15:57:55.666Z,8.57
2018-05-23T15:59:59.478Z,15.97
2018-05-23T16:02:02.207Z,9.60
2018-05-23T16:04:04.881Z,10.87
2018-05-23T16:06:07.579Z,11.93
2018-05-23T16:08:11.037Z,10.50
2018-05-23T16:10:13.751Z,15.33
2018-05-23T16:12:16.642Z,11.33
2018-05-23T16:14:20.100Z,12.77
2018-05-23T16:16:22.805Z,19.57
2018-05-23T16:18:25.472Z,7.97
2018-05-23T16:20:28.228Z,13.37
2018-05-23T16:22:30.937Z,14.60
2018-05-23T16:24:33.609Z,10.57
2018-05-23T16:26:36.330Z,17.27
2018-05-23T16:28:39.029Z,15.60
2018-05-23T16:30:41.733Z,13.47
2018-05-23T16:32:44.469Z,10.10
2018-05-23T16:34:47.226Z,14.70
2018-05-23T16:36:50.715Z,12.33
2018-05-23T16:38:53.420Z,11.77
2018-05-23T16:40:56.094Z,12.97
2018-05-23T16:42:58.800Z,13.50
2018-05-23T16:45:01.486Z,18.27
2018-05-23T16:47:04.197Z,25.13
2018-05-23T16:49:06.927Z,19.73
2018-05-23T16:51:09.605Z,14.70
2018-05-23T16:53:12.298Z,7.87
2018-05-23T16:55:15.072Z,14.50
2018-05-23T16:57:17.762Z,11.60
2018-05-23T16:59:20.817Z,13.23
2018-05-23T17:01:23.603Z,12.47
2018-05-23T17:03:26.324Z,9.83
2018-05-23T17:05:29.772Z,11.10
2018-05-23T17:07:32.472Z,14.43
2018-05-23T17:09:35.646Z,7.37
2018-05-23T17:11:38.422Z,12.13
2018-05-23T17:13:41.288Z,21.60
2018-05-23T17:15:43.987Z,10.23
2018-05-23T17:17:46.662Z,9.83
2018-05-23T17:19:49.354Z,9.23
2018-05-23T17:21:52.118Z,18.23
2018-05-23T17:23:54.824Z,10.03
2018-05-23T17:25:58.852Z,10.07
2018-05-23T17:28:01.619Z,15.00
2018-05-23T17:30:05.440Z,10.60
2018-05-23T17:32:08.254Z,10.27
2018-05-23T17:34:10.967Z,6.77
2018-05-23T17:36:14.707Z,8.43
2018-05-23T17:38:17.406Z,10.60
2018-05-23T17:40:20.200Z,16.90
2018-05-23T17:42:22.910Z,8.70
2018-05-23T17:44:27.428Z,18.63
2018-05-23T17:46:30.129Z,17.33
2018-05-23T17:48:33.833Z,6.43
2018-05-23T17:50:38.738Z,8.97
2018-05-23T17:52:41.489Z,11.27
2018-05-23T17:54:44.967Z,7.73
2018-05-23T17:56:47.681Z,9.33
2018-05-23T17:58:50.403Z,10.00
2018-05-23T18:00:53.904Z,17.50
2018-05-23T18:02:56.637Z,8.37
2018-05-23T18:05:00.572Z,8.53
2018-05-23T18:07:03.346Z,14.90
2018-05-23T18:09:06.178Z,7.33
2018-05-23T18:11:09.729Z,12.60
2018-05-23T18:13:12.978Z,8.27
2018-05-23T18:15:16.700Z,8.03
2018-05-23T18:17:19.419Z,9.30
2018-05-23T18:19:22.145Z,10.00
2018-05-23T18:21:24.901Z,10.30
2018-05-23T18:23:28.428Z,13.07
2018-05-23T18:25:31.960Z,10.10
2018-05-23T18:27:34.676Z,8.43
2018-05-23T18:29:39.221Z,8.77
2018-05-23T18:31:41.962Z,13.10
2018-05-23T18:33:45.526Z,12.57
2018-05-23T18:35:48.262Z,5.10
2018-05-23T18:37:51.021Z,9.60
2018-05-23T18:39:54.496Z,10.33
2018-05-23T18:41:57.263Z,11.47
2018-05-23T18:44:02.006Z,7.03
2018-05-23T18:46:04.750Z,7.67
2018-05-23T18:48:07.732Z,9.80
2018-05-23T18:50:10.453Z,8.73
2018-05-23T18:52:13.980Z,7.47
2018-05-23T18:54:16.676Z,8.97
2018-05-23T18:56:19.432Z,8.00
2018-05-23T18:58:22.178Z,5.80
2018-05-23T19:00:24.907Z,13.83
2018-05-23T19:02:27.637Z,7.60
2018-05-23T19:04:30.317Z,9.17
2018-05-23T19:06:33.890Z,7.50
2018-05-23T19:08:36.636Z,11.43
2018-05-23T19:10:39.341Z,7.97
2018-05-23T19:12:42.169Z,9.13
2018-05-23T19:14:44.934Z,6.90
2018-05-23T19:16:47.704Z,6.80
2018-05-23T19:18:52.041Z,9.53
2018-05-23T19:20:55.818Z,9.63
2018-05-23T19:22:59.465Z,8.13
2018-05-23T19:25:02.761Z,10.27
2018-05-23T19:27:05.439Z,7.37
2018-05-23T19:29:10.179Z,11.00
2018-05-23T19:31:12.889Z,8.63
2018-05-23T19:33:15.637Z,7.20
2018-05-23T19:35:23.665Z,15.07
2018-05-23T19:37:27.336Z,6.10
2018-05-23T19:39:30.987Z,5.80
2018-05-23T19:41:33.760Z,8.40
2018-05-23T19:43:38.266Z,6.77
2018-05-23T19:45:41.865Z,8.40
2018-05-23T19:47:45.325Z,6.90
2018-05-23T19:49:48.148Z,7.70
2018-05-23T19:51:52.534Z,7.33
2018-05-23T19:53:55.442Z,10.20
2018-05-23T19:55:58.970Z,12.03
2018-05-23T19:58:05.223Z,6.10
2018-05-23T20:00:09.123Z,18.13
2018-05-23T20:02:11.882Z,7.30
2018-05-23T20:04:14.590Z,9.53
2018-05-23T20:06:17.596Z,6.63
2018-05-23T20:08:20.339Z,5.40
2018-05-23T20:10:23.106Z,5.07
2018-05-23T20:25:10.665Z,9.27
2018-05-23T20:27:13.428Z,5.60
2018-05-23T20:31:31.242Z,5.77
2018-05-23T20:33:35.835Z,7.73
2018-05-23T20:35:38.709Z,5.97
2018-05-23T20:37:41.746Z,5.77
2018-05-23T20:39:44.475Z,5.70
2018-05-23T20:41:47.276Z,8.50
2018-05-23T20:43:50.740Z,5.50
2018-05-23T20:45:53.467Z,4.20
2018-05-23T20:47:56.189Z,9.83
2018-05-23T20:49:58.867Z,6.80
2018-05-23T20:52:01.563Z,5.63
2018-05-23T20:54:04.472Z,5.67
2018-05-23T20:56:08.018Z,6.90
2018-05-23T20:58:10.729Z,4.73
2018-05-23T21:00:14.211Z,8.37
2018-05-23T21:02:17.027Z,5.93
2018-05-23T21:04:19.748Z,10.77
2018-05-23T21:06:22.688Z,8.50
2018-05-23T21:08:25.412Z,12.10
2018-05-23T21:10:28.284Z,5.60
2018-05-23T21:12:31.017Z,8.10
2018-05-23T21:14:33.711Z,5.37
2018-05-23T21:16:36.536Z,8.30
2018-05-23T21:18:39.267Z,10.50
2018-05-23T21:20:42.013Z,11.03
2018-05-23T21:22:45.453Z,11.23
2018-05-23T21:24:48.171Z,6.97
2018-05-23T21:26:50.852Z,12.73
2018-05-23T21:28:53.718Z,9.67
2018-05-23T21:30:56.446Z,8.53
2018-05-23T21:32:59.151Z,20.37
2018-05-23T21:35:01.903Z,6.60
2018-05-23T21:37:04.750Z,11.70
2018-05-23T21:39:07.470Z,14.90
2018-05-23T21:41:10.618Z,7.30
2018-05-23T21:43:14.066Z,6.97
2018-05-23T21:45:16.764Z,7.20
2018-05-23T21:47:19.467Z,10.07
2018-05-23T21:49:22.207Z,11.80
2018-05-23T21:51:25.010Z,10.97
2018-05-23T21:53:27.848Z,11.23
2018-05-23T21:55:30.579Z,12.93
2018-05-23T21:57:33.275Z,8.30
2018-05-23T21:59:36.084Z,7.73
2018-05-23T22:01:38.782Z,8.63
2018-05-23T22:03:41.501Z,10.47
2018-05-23T22:05:45.066Z,7.57
2018-05-23T22:07:47.747Z,7.40
2018-05-23T22:09:50.487Z,9.50
2018-05-23T22:11:53.173Z,9.33
2018-05-23T22:13:55.847Z,5.00
2018-05-23T22:15:58.576Z,14.03
2018-05-23T22:18:02.031Z,5.77
2018-05-23T22:20:04.733Z,9.10
2018-05-23T22:22:07.490Z,5.53
2018-05-23T22:24:10.190Z,10.00
2018-05-23T22:26:12.911Z,5.80
2018-05-23T22:28:15.603Z,7.83
2018-05-23T22:30:18.412Z,10.33
2018-05-23T22:32:21.173Z,11.70
2018-05-23T22:34:24.716Z,10.20
2018-05-23T22:36:27.466Z,14.10
2018-05-23T22:38:30.133Z,9.87
2018-05-23T22:40:32.805Z,8.83
2018-05-23T22:42:35.553Z,11.00
2018-05-23T22:44:38.237Z,13.20
2018-05-23T22:46:40.937Z,11.60
2018-05-23T22:48:44.383Z,8.30
2018-05-23T22:50:47.084Z,6.87
2018-05-23T22:52:49.822Z,5.90
2018-05-23T22:54:53.322Z,9.73
2018-05-23T22:56:56.804Z,5.20
2018-05-23T22:58:59.509Z,6.70
2018-05-23T23:01:02.198Z,7.27
2018-05-23T23:03:04.932Z,18.37
2018-05-23T23:05:07.905Z,9.03
2018-05-23T23:07:10.631Z,12.50
2018-05-23T23:09:13.334Z,12.20
2018-05-23T23:11:16.046Z,5.90
2018-05-23T23:13:18.734Z,5.53
2018-05-23T23:15:22.189Z,10.23
2018-05-23T23:17:24.883Z,9.37
2018-05-23T23:19:27.591Z,8.80
2018-05-23T23:21:31.058Z,9.60
2018-05-23T23:23:33.768Z,11.30
2018-05-23T23:25:38.308Z,7.30
2018-05-23T23:27:41.061Z,12.00
2018-05-23T23:29:43.751Z,14.53
2018-05-23T23:31:46.447Z,5.67
2018-05-23T23:33:49.151Z,7.50
2018-05-23T23:35:51.828Z,8.40
2018-05-23T23:37:54.490Z,7.40
2018-05-23T23:39:57.185Z,9.03
2018-05-23T23:41:59.867Z,7.47
2018-05-23T23:44:02.585Z,20.53
2018-05-23T23:46:05.374Z,7.43
2018-05-23T23:48:08.060Z,6.40
2018-05-23T23:50:10.911Z,11.47
2018-05-23T23:52:13.607Z,18.13
2018-05-23T23:54:16.353Z,6.80
2018-05-23T23:56:20.025Z,7.40
2018-05-23T23:58:22.869Z,9.70
